Terminal Aerodrome Forecast
Issued by NWS

Home | Current Version | Previous Version | Graphics & Text | Print | Product List | Glossary On
Versions: 1 2 3 4 5 6 7 8 9 10 11 12 13 14
000
FTUS43 KMPX 181700
TAFRWF
TAF
KRWF 181728Z 1818/1918 VRB02KT P6SM OVC020
      TEMPO 1818/1819 OVC018
     FM181945 34004KT P6SM SCT025
     FM190000 16006KT P6SM FEW150
     FM191000 18008KT P6SM BKN150
     FM191300 21010G16KT P6SM BKN150=

USA.gov is the U.S. government's official web portal to all federal, state and local government web resources and services.